sensor_id;sensor_type;location;lat;lon;timestamp;P1;durP1;ratioP1;P2;durP2;ratioP2
68940;SDS011;55982;51.476;7.552;2023-02-28T21:35:51;18.50;;;10.20;;
68940;SDS011;55982;51.476;7.552;2023-02-28T21:38:16;22.92;;;11.10;;
68940;SDS011;55982;51.476;7.552;2023-02-28T21:40:42;22.45;;;11.15;;
68940;SDS011;55982;51.476;7.552;2023-02-28T21:43:08;20.20;;;11.60;;
68940;SDS011;55982;51.476;7.552;2023-02-28T21:45:33;24.70;;;12.00;;
68940;SDS011;55982;51.476;7.552;2023-02-28T21:47:59;21.85;;;11.20;;
68940;SDS011;55982;51.476;7.552;2023-02-28T21:50:24;19.45;;;11.55;;
68940;SDS011;55982;51.476;7.552;2023-02-28T21:52:50;22.58;;;11.23;;
68940;SDS011;55982;51.476;7.552;2023-02-28T21:55:15;20.63;;;11.52;;
68940;SDS011;55982;51.476;7.552;2023-02-28T21:57:40;20.67;;;11.38;;
68940;SDS011;55982;51.476;7.552;2023-02-28T22:00:06;19.60;;;11.88;;
68940;SDS011;55982;51.476;7.552;2023-02-28T22:02:32;31.95;;;14.98;;
68940;SDS011;55982;51.476;7.552;2023-02-28T22:05:00;22.58;;;11.93;;
68940;SDS011;55982;51.476;7.552;2023-02-28T22:07:27;20.25;;;11.07;;
68940;SDS011;55982;51.476;7.552;2023-02-28T22:09:53;21.30;;;12.32;;
68940;SDS011;55982;51.476;7.552;2023-02-28T22:12:18;26.30;;;11.73;;
68940;SDS011;55982;51.476;7.552;2023-02-28T22:14:44;22.67;;;11.55;;
68940;SDS011;55982;51.476;7.552;2023-02-28T22:17:10;21.50;;;12.27;;
68940;SDS011;55982;51.476;7.552;2023-02-28T22:19:35;22.98;;;12.73;;
68940;SDS011;55982;51.476;7.552;2023-02-28T22:22:01;24.85;;;12.93;;
68940;SDS011;55982;51.476;7.552;2023-02-28T22:24:26;23.35;;;12.05;;
68940;SDS011;55982;51.476;7.552;2023-02-28T22:26:52;22.70;;;12.52;;
68940;SDS011;55982;51.476;7.552;2023-02-28T22:29:18;25.85;;;13.13;;
68940;SDS011;55982;51.476;7.552;2023-02-28T22:31:43;25.02;;;12.90;;
68940;SDS011;55982;51.476;7.552;2023-02-28T22:34:10;30.65;;;13.18;;
68940;SDS011;55982;51.476;7.552;2023-02-28T22:36:36;22.15;;;12.43;;
68940;SDS011;55982;51.476;7.552;2023-02-28T22:39:02;27.75;;;13.68;;
68940;SDS011;55982;51.476;7.552;2023-02-28T22:41:28;23.45;;;12.25;;
68940;SDS011;55982;51.476;7.552;2023-02-28T22:43:54;25.65;;;13.25;;
68940;SDS011;55982;51.476;7.552;2023-02-28T22:46:22;25.45;;;13.52;;
68940;SDS011;55982;51.476;7.552;2023-02-28T22:48:48;23.30;;;13.50;;
68940;SDS011;55982;51.476;7.552;2023-02-28T22:51:16;30.08;;;14.07;;
68940;SDS011;55982;51.476;7.552;2023-02-28T22:53:44;25.00;;;14.02;;
68940;SDS011;55982;51.476;7.552;2023-02-28T22:56:11;23.75;;;13.10;;
68940;SDS011;55982;51.476;7.552;2023-02-28T22:58:38;24.48;;;13.27;;
68940;SDS011;55982;51.476;7.552;2023-02-28T23:01:04;30.63;;;14.10;;
68940;SDS011;55982;51.476;7.552;2023-02-28T23:03:30;26.70;;;13.60;;
68940;SDS011;55982;51.476;7.552;2023-02-28T23:05:56;27.17;;;13.45;;
68940;SDS011;55982;51.476;7.552;2023-02-28T23:08:21;26.10;;;14.23;;
68940;SDS011;55982;51.476;7.552;2023-02-28T23:10:48;22.80;;;13.57;;
68940;SDS011;55982;51.476;7.552;2023-02-28T23:13:15;26.70;;;13.93;;
68940;SDS011;55982;51.476;7.552;2023-02-28T23:15:44;29.48;;;14.60;;
68940;SDS011;55982;51.476;7.552;2023-02-28T23:18:10;28.05;;;14.90;;
68940;SDS011;55982;51.476;7.552;2023-02-28T23:20:36;34.03;;;15.48;;
68940;SDS011;55982;51.476;7.552;2023-02-28T23:23:02;27.13;;;14.60;;
68940;SDS011;55982;51.476;7.552;2023-02-28T23:25:28;31.80;;;14.80;;
68940;SDS011;55982;51.476;7.552;2023-02-28T23:27:53;27.50;;;14.30;;
68940;SDS011;55982;51.476;7.552;2023-02-28T23:30:19;28.20;;;14.40;;
68940;SDS011;55982;51.476;7.552;2023-02-28T23:32:44;30.20;;;15.30;;
68940;SDS011;55982;51.476;7.552;2023-02-28T23:35:10;27.48;;;14.43;;
68940;SDS011;55982;51.476;7.552;2023-02-28T23:37:36;28.50;;;14.48;;
68940;SDS011;55982;51.476;7.552;2023-02-28T23:40:03;33.95;;;15.35;;
68940;SDS011;55982;51.476;7.552;2023-02-28T23:42:31;31.58;;;16.67;;
68940;SDS011;55982;51.476;7.552;2023-02-28T23:44:57;33.65;;;16.95;;
68940;SDS011;55982;51.476;7.552;2023-02-28T23:47:22;32.83;;;16.80;;
68940;SDS011;55982;51.476;7.552;2023-02-28T23:49:48;30.33;;;16.55;;
68940;SDS011;55982;51.476;7.552;2023-02-28T23:52:13;36.05;;;17.30;;
68940;SDS011;55982;51.476;7.552;2023-02-28T23:54:38;32.13;;;15.88;;
68940;SDS011;55982;51.476;7.552;2023-02-28T23:57:04;33.58;;;16.92;;
68940;SDS011;55982;51.476;7.552;2023-02-28T23:59:32;30.00;;;15.50;;
